Time;durP1;ratioP1;P1;durP2;ratioP2;P2;SDS_P1;SDS_P2;PMS_P1;PMS_P2;Temp;Humidity;BMP_temperature;BMP_pressure;BME280_temperature;BME280_humidity;BME280_pressure;Samples;Min_cycle;Max_cycle;Signal;HPM_P1;HPM_P2
2022/03/21 00:00:57;;;;;;;21.45;10.68;;;;;;;-146.84;100.00;65060.63;5004642;28;20173;-77
2022/03/21 00:03:25;;;;;;;18.50;10.15;;;;;;;-146.84;100.00;65060.63;5021280;28;20049;-78
2022/03/21 00:05:51;;;;;;;20.42;10.55;;;;;;;-146.84;100.00;65060.63;4990656;28;20046;-80
2022/03/21 00:08:18;;;;;;;18.88;10.65;;;;;;;-146.84;100.00;65060.63;5011218;28;20037;-78
2022/03/21 00:10:45;;;;;;;15.93;9.45;;;;;;;-146.84;100.00;65060.63;4979356;28;20037;-79
2022/03/21 00:13:15;;;;;;;17.77;10.23;;;;;;;-146.84;100.00;65060.63;5010127;28;20745;-79
2022/03/21 00:15:46;;;;;;;23.13;11.07;;;;;;;-146.84;100.00;65060.63;4980926;28;20034;-79
2022/03/21 00:18:16;;;;;;;21.20;10.88;;;;;;;-146.84;100.00;65060.63;4994614;28;20057;-78
2022/03/21 00:20:44;;;;;;;18.10;10.35;;;;;;;-146.84;100.00;65060.63;5007947;28;20667;-78
2022/03/21 00:23:11;;;;;;;21.00;10.95;;;;;;;-146.84;100.00;65060.63;5001350;28;20037;-77
2022/03/21 00:25:37;;;;;;;18.75;10.65;;;;;;;-146.84;100.00;65060.63;5016337;28;20036;-77
2022/03/21 00:28:07;;;;;;;17.65;10.73;;;;;;;-146.84;100.00;65060.63;5017401;28;20484;-76
2022/03/21 00:30:35;;;;;;;17.73;10.10;;;;;;;-146.84;100.00;65060.63;4995277;28;20044;-78
2022/03/21 00:33:01;;;;;;;19.13;10.35;;;;;;;-146.84;100.00;65060.63;4994717;28;20021;-77
2022/03/21 00:35:29;;;;;;;19.88;10.57;;;;;;;-146.84;100.00;65060.63;5012376;28;20483;-76
2022/03/21 00:37:56;;;;;;;22.80;11.05;;;;;;;-146.84;100.00;65060.63;5012805;28;20107;-76
2022/03/21 00:40:24;;;;;;;20.95;10.38;;;;;;;-146.84;100.00;65060.63;5009227;28;20387;-80
2022/03/21 00:42:51;;;;;;;18.15;10.18;;;;;;;-146.84;100.00;65060.63;4988698;28;20065;-77
2022/03/21 00:45:19;;;;;;;20.02;10.45;;;;;;;-146.84;100.00;65060.63;4990402;28;20034;-79
2022/03/21 00:47:47;;;;;;;17.48;10.30;;;;;;;-146.84;100.00;65060.63;4980087;28;20065;-78
2022/03/21 00:50:17;;;;;;;22.42;10.82;;;;;;;-146.84;100.00;65060.63;5013519;28;20041;-79
2022/03/21 00:52:52;;;;;;;18.90;10.38;;;;;;;-146.84;100.00;65060.63;5003245;28;20034;-76
2022/03/21 00:55:20;;;;;;;17.90;10.18;;;;;;;-146.84;100.00;65060.63;5003818;28;20042;-79
2022/03/21 00:57:46;;;;;;;19.73;10.43;;;;;;;-146.84;100.00;65060.63;4998399;28;20033;-80
2022/03/21 01:00:14;;;;;;;18.35;10.45;;;;;;;-146.84;100.00;65060.63;4994478;28;20038;-77
2022/03/21 01:02:40;;;;;;;18.70;10.10;;;;;;;-146.84;100.00;65060.63;4998055;28;20177;-79
2022/03/21 01:05:08;;;;;;;19.50;9.23;;;;;;;-146.84;100.00;65060.63;4993578;28;20037;-76
2022/03/21 01:07:36;;;;;;;18.52;10.50;;;;;;;-146.84;100.00;65060.63;5021859;28;20030;-81
2022/03/21 01:10:04;;;;;;;18.88;10.93;;;;;;;-146.84;100.00;65060.63;4977214;28;20037;-78
2022/03/21 01:12:30;;;;;;;20.45;10.60;;;;;;;-146.84;100.00;65060.63;4977572;28;20030;-78
2022/03/21 01:14:56;;;;;;;18.60;10.02;;;;;;;-146.84;100.00;65060.63;4993830;28;20092;-79
2022/03/21 01:17:22;;;;;;;21.25;10.50;;;;;;;-146.84;100.00;65060.63;4977204;28;20045;-79
2022/03/21 01:20:04;;;;;;;18.38;10.18;;;;;;;-146.84;100.00;65060.63;4994905;28;20034;-80
2022/03/21 01:22:30;;;;;;;20.58;10.85;;;;;;;-146.84;100.00;65060.63;5010297;28;20030;-79
2022/03/21 01:24:57;;;;;;;21.98;10.35;;;;;;;-146.84;100.00;65060.63;4990949;28;20038;-79
2022/03/21 01:27:23;;;;;;;21.90;10.20;;;;;;;-146.84;100.00;65060.63;5010659;28;20145;-80
2022/03/21 01:29:49;;;;;;;23.92;10.90;;;;;;;-146.84;100.00;65060.63;4992551;28;20045;-77
2022/03/21 01:32:16;;;;;;;20.70;10.52;;;;;;;-146.84;100.00;65060.63;4991674;28;20499;-80
2022/03/21 01:34:42;;;;;;;19.70;10.55;;;;;;;-146.84;100.00;65060.63;4967185;28;20044;-81
2022/03/21 01:37:08;;;;;;;19.48;10.25;;;;;;;-146.84;100.00;65060.63;4977112;28;20038;-78
2022/03/21 01:39:38;;;;;;;18.80;10.15;;;;;;;-146.84;100.00;65060.63;4988665;28;20065;-79
2022/03/21 01:42:10;;;;;;;18.92;10.32;;;;;;;-146.84;100.00;65060.63;4996079;28;20061;-78
2022/03/21 01:44:36;;;;;;;20.92;10.27;;;;;;;-146.84;100.00;65060.63;4976489;28;20100;-78
2022/03/21 01:47:03;;;;;;;19.98;10.25;;;;;;;-146.84;100.00;65060.63;5011466;28;20116;-81
2022/03/21 01:49:29;;;;;;;20.60;9.95;;;;;;;-146.84;100.00;65060.63;4992065;28;20529;-78
2022/03/21 01:51:55;;;;;;;19.15;10.20;;;;;;;-146.84;100.00;65060.63;4993342;28;20041;-79
2022/03/21 01:57:05;;;;;;;23.13;9.93;;;;;;;-146.84;100.00;65060.63;4999043;28;20038;-78
2022/03/21 01:59:33;;;;;;;18.77;10.73;;;;;;;-146.84;100.00;65060.63;5006458;28;20045;-79
2022/03/21 02:01:59;;;;;;;19.25;10.35;;;;;;;-146.84;100.00;65060.63;4994721;28;20037;-78
2022/03/21 02:04:25;;;;;;;22.23;10.77;;;;;;;-146.84;100.00;65060.63;5016730;28;20088;-79
2022/03/21 02:06:51;;;;;;;18.70;10.10;;;;;;;-146.84;100.00;65060.63;5016728;28;20047;-77
2022/03/21 02:09:17;;;;;;;19.48;10.43;;;;;;;-146.84;100.00;65060.63;5016030;28;20044;-78
2022/03/21 02:11:43;;;;;;;20.27;10.82;;;;;;;-146.84;100.00;65060.63;4998134;28;20101;-77
2022/03/21 02:14:10;;;;;;;17.85;10.32;;;;;;;-146.84;100.00;65060.63;5000571;28;20111;-75
2022/03/21 02:16:37;;;;;;;16.90;10.45;;;;;;;-146.84;100.00;65060.63;5018281;28;20042;-80
2022/03/21 02:19:20;;;;;;;16.20;9.95;;;;;;;-146.84;100.00;65060.63;5016351;28;20026;-77
2022/03/21 02:22:10;;;;;;;18.45;10.32;;;;;;;-146.84;100.00;65060.63;4998130;28;20064;-77
2022/03/21 02:25:02;;;;;;;19.55;10.75;;;;;;;-146.84;100.00;65060.63;5001713;28;20048;-75
2022/03/21 02:27:32;;;;;;;17.00;10.13;;;;;;;-146.84;100.00;65060.63;5017855;28;20578;-78
2022/03/21 02:30:00;;;;;;;19.75;10.32;;;;;;;-146.84;100.00;65060.63;4991949;28;20442;-78
2022/03/21 02:32:27;;;;;;;17.17;10.18;;;;;;;-146.84;100.00;65060.63;4983966;28;20124;-79
2022/03/21 02:34:54;;;;;;;22.40;11.02;;;;;;;-146.84;100.00;65060.63;4980672;28;20492;-78
2022/03/21 02:37:26;;;;;;;18.27;10.18;;;;;;;-146.84;100.00;65060.63;4990210;28;20069;-79
2022/03/21 02:39:54;;;;;;;19.42;10.18;;;;;;;-146.84;100.00;65060.63;5011616;28;20034;-80
2022/03/21 02:42:20;;;;;;;20.55;10.80;;;;;;;-146.84;100.00;65060.63;5005097;28;20033;-79
2022/03/21 02:44:46;;;;;;;20.02;10.25;;;;;;;-146.84;100.00;65060.63;5016465;28;20037;-78
2022/03/21 02:47:12;;;;;;;18.27;10.32;;;;;;;-146.84;100.00;65060.63;5012948;28;20042;-78
2022/03/21 02:49:38;;;;;;;17.65;10.38;;;;;;;-146.84;100.00;65060.63;4996957;28;20049;-78
2022/03/21 02:52:06;;;;;;;19.65;10.88;;;;;;;-146.84;100.00;65060.63;4996852;28;20030;-79
2022/03/21 02:54:33;;;;;;;19.05;9.93;;;;;;;-146.84;100.00;65060.63;5012573;28;20056;-78
2022/03/21 02:57:00;;;;;;;19.15;10.05;;;;;;;-146.84;100.00;65060.63;4998731;28;20038;-79
2022/03/21 02:59:27;;;;;;;17.55;10.23;;;;;;;-146.84;100.00;65060.63;4989016;28;20041;-78
2022/03/21 03:01:53;;;;;;;20.02;10.93;;;;;;;-146.84;100.00;65060.63;4999630;28;20045;-75
2022/03/21 03:04:26;;;;;;;18.08;10.32;;;;;;;-146.84;100.00;65060.63;5014444;28;20029;-77
2022/03/21 03:06:53;;;;;;;19.50;10.18;;;;;;;-146.84;100.00;65060.63;5007351;28;20061;-77
2022/03/21 03:09:20;;;;;;;20.55;10.93;;;;;;;-146.84;100.00;65060.63;4995605;28;20034;-80
2022/03/21 03:11:46;;;;;;;19.95;10.88;;;;;;;-146.84;100.00;65060.63;4985143;28;20519;-79
2022/03/21 03:14:13;;;;;;;20.48;11.15;;;;;;;-146.84;100.00;65060.63;4982654;28;20100;-77
2022/03/21 03:16:39;;;;;;;22.58;10.90;;;;;;;-146.84;100.00;65060.63;4982505;28;20045;-78
2022/03/21 03:19:05;;;;;;;21.75;10.73;;;;;;;-146.84;100.00;65060.63;4991503;28;20044;-76
2022/03/21 03:21:36;;;;;;;22.38;10.80;;;;;;;-146.84;100.00;65060.63;5008015;28;20070;-78
2022/03/21 03:24:04;;;;;;;20.58;10.35;;;;;;;-146.84;100.00;65060.63;4981050;28;20033;-75
2022/03/21 03:26:30;;;;;;;18.05;10.50;;;;;;;-146.84;100.00;65060.63;5006057;28;20053;-78
2022/03/21 03:28:56;;;;;;;19.98;10.90;;;;;;;-146.84;100.00;65060.63;4981663;28;20050;-77
2022/03/21 03:31:23;;;;;;;20.05;9.82;;;;;;;-146.84;100.00;65060.63;4983668;28;20128;-77
2022/03/21 03:33:49;;;;;;;18.88;10.85;;;;;;;-146.84;100.00;65060.63;5012637;28;20040;-79
2022/03/21 03:36:16;;;;;;;18.02;10.05;;;;;;;-146.84;100.00;65060.63;4980766;28;20037;-78
2022/03/21 03:38:46;;;;;;;16.60;9.70;;;;;;;-146.84;100.00;65060.63;5008151;28;20508;-77
2022/03/21 03:41:13;;;;;;;19.77;10.18;;;;;;;-146.84;100.00;65060.63;4996204;28;20558;-77
2022/03/21 03:43:43;;;;;;;19.83;10.15;;;;;;;-146.84;100.00;65060.63;4994968;28;20040;-79
2022/03/21 03:46:09;;;;;;;21.00;10.32;;;;;;;-146.84;100.00;65060.63;4982434;28;20034;-76
2022/03/21 03:48:36;;;;;;;21.40;10.18;;;;;;;-146.84;100.00;65060.63;4986673;28;20046;-79
2022/03/21 03:51:03;;;;;;;21.80;10.75;;;;;;;-146.84;100.00;65060.63;4995969;28;20026;-76
2022/03/21 03:53:30;;;;;;;25.05;10.63;;;;;;;-146.84;100.00;65060.63;4995770;28;20109;-79
2022/03/21 03:55:56;;;;;;;20.38;10.52;;;;;;;-146.84;100.00;65060.63;5013672;28;20104;-77
2022/03/21 03:58:22;;;;;;;19.58;10.48;;;;;;;-146.84;100.00;65060.63;4982327;28;20042;-77
2022/03/21 04:00:49;;;;;;;19.50;10.65;;;;;;;-146.84;100.00;65060.63;4996822;28;20038;-78
2022/03/21 04:03:48;;;;;;;18.95;9.90;;;;;;;-146.84;100.00;65060.63;4978186;28;20094;-77
2022/03/21 04:06:07;;;;;;;17.80;11.02;;;;;;;-146.84;100.00;65060.63;4991359;28;20052;-78
2022/03/21 04:08:32;;;;;;;22.00;9.98;;;;;;;-146.84;100.00;65060.63;5023966;28;20033;-77
2022/03/21 04:10:58;;;;;;;16.70;9.85;;;;;;;-146.84;100.00;65060.63;4996067;28;20048;-76
2022/03/21 04:13:23;;;;;;;22.42;11.00;;;;;;;-146.84;100.00;65060.63;5019486;28;20034;-76
2022/03/21 04:15:49;;;;;;;21.35;10.48;;;;;;;-146.84;100.00;65060.63;4994431;28;20038;-76
2022/03/21 04:18:15;;;;;;;21.48;10.70;;;;;;;-146.84;100.00;65060.63;4984720;28;20323;-77
2022/03/21 04:20:40;;;;;;;17.48;10.43;;;;;;;-146.84;100.00;65060.63;5014317;28;20141;-76
2022/03/21 04:23:07;;;;;;;20.20;10.93;;;;;;;-146.84;100.00;65060.63;5014062;28;20125;-77
2022/03/21 04:25:33;;;;;;;21.63;10.95;;;;;;;-146.84;100.00;65060.63;4979256;28;20149;-77
2022/03/21 04:27:59;;;;;;;19.23;11.20;;;;;;;-146.84;100.00;65060.63;4997112;28;20508;-77
2022/03/21 04:30:25;;;;;;;21.17;11.32;;;;;;;-146.84;100.00;65060.63;5003621;28;20042;-76
2022/03/21 04:32:50;;;;;;;20.40;10.95;;;;;;;-146.84;100.00;65060.63;4974489;28;20518;-77
2022/03/21 04:35:16;;;;;;;20.65;10.98;;;;;;;-146.84;100.00;65060.63;4976585;28;20038;-77
2022/03/21 04:37:42;;;;;;;20.73;11.07;;;;;;;-146.84;100.00;65060.63;4991449;28;20061;-75
2022/03/21 04:40:09;;;;;;;18.75;10.77;;;;;;;-146.84;100.00;65060.63;4991130;28;20037;-79
2022/03/21 04:42:36;;;;;;;24.27;10.77;;;;;;;-146.84;100.00;65060.63;4998990;28;20072;-77
2022/03/21 04:45:03;;;;;;;21.02;10.68;;;;;;;-146.84;100.00;65060.63;5017878;28;20045;-78
2022/03/21 04:47:30;;;;;;;19.77;11.00;;;;;;;-146.84;100.00;65060.63;5016618;28;20758;-77
2022/03/21 04:49:55;;;;;;;19.48;11.00;;;;;;;-146.84;100.00;65060.63;4999557;28;20072;-76
2022/03/21 04:52:20;;;;;;;21.08;11.55;;;;;;;-146.84;100.00;65060.63;4998854;28;20042;-76
2022/03/21 04:54:48;;;;;;;21.88;10.93;;;;;;;-146.84;100.00;65060.63;5012629;28;20030;-77
2022/03/21 04:57:14;;;;;;;19.52;10.55;;;;;;;-146.84;100.00;65060.63;4995711;28;20037;-78
2022/03/21 04:59:40;;;;;;;18.27;10.40;;;;;;;-146.84;100.00;65060.63;5008752;28;20483;-77
2022/03/21 05:02:06;;;;;;;20.00;10.48;;;;;;;-146.84;100.00;65060.63;4978431;28;20492;-76
2022/03/21 05:04:34;;;;;;;20.60;11.20;;;;;;;-146.84;100.00;65060.63;5006223;28;20049;-77
2022/03/21 05:07:00;;;;;;;19.63;11.23;;;;;;;-146.84;100.00;65060.63;4993289;28;20030;-78
2022/03/21 05:09:25;;;;;;;19.83;11.65;;;;;;;-146.84;100.00;65060.63;4998033;28;20555;-75
2022/03/21 05:11:52;;;;;;;21.20;10.90;;;;;;;-146.84;100.00;65060.63;4997609;28;20060;-78
2022/03/21 05:14:18;;;;;;;22.48;11.20;;;;;;;-146.84;100.00;65060.63;5012992;28;20046;-76
2022/03/21 05:16:49;;;;;;;21.08;11.32;;;;;;;-146.84;100.00;65060.63;4997001;28;20046;-77
2022/03/21 05:19:14;;;;;;;20.42;10.60;;;;;;;-146.84;100.00;65060.63;4995891;28;20112;-75
2022/03/21 05:21:40;;;;;;;20.95;10.63;;;;;;;-146.84;100.00;65060.63;4996974;28;20079;-76
2022/03/21 05:32:20;;;;;;;21.45;11.93;;;;;;;-146.84;100.00;65060.63;5014295;28;20034;-76
2022/03/21 05:37:30;;;;;;;17.65;10.88;;;;;;;-146.84;100.00;65060.63;5012768;28;20068;-75
2022/03/21 05:42:40;;;;;;;21.45;10.57;;;;;;;-146.84;100.00;65060.63;4992185;28;20130;-77
2022/03/21 05:45:06;;;;;;;21.77;11.18;;;;;;;-146.84;100.00;65060.63;4992160;28;20073;-76
2022/03/21 05:48:50;;;;;;;22.10;10.93;;;;;;;-146.84;100.00;65060.63;5000618;28;20026;-77
2022/03/21 05:50:17;;;;;;;20.00;11.50;;;;;;;-146.84;100.00;65060.63;5015733;28;20040;-77
2022/03/21 05:52:43;;;;;;;20.75;12.00;;;;;;;-146.84;100.00;65060.63;5000640;28;20018;-76
2022/03/21 05:55:09;;;;;;;19.88;11.77;;;;;;;-146.84;100.00;65060.63;5014128;28;20030;-76
2022/03/21 05:57:34;;;;;;;21.55;11.75;;;;;;;-146.84;100.00;65060.63;5007687;28;20484;-77
2022/03/21 06:02:44;;;;;;;18.85;10.77;;;;;;;-146.84;100.00;65060.63;5018094;28;20031;-77
2022/03/21 06:05:10;;;;;;;22.10;12.20;;;;;;;-146.84;100.00;65060.63;5014143;28;20056;-77
2022/03/21 06:07:35;;;;;;;19.48;10.77;;;;;;;-146.84;100.00;65060.63;5001535;28;20041;-76
2022/03/21 06:10:01;;;;;;;24.25;12.02;;;;;;;-146.84;100.00;65060.63;5022120;28;20041;-76
2022/03/21 06:12:26;;;;;;;27.48;11.90;;;;;;;-146.84;100.00;65060.63;5015703;28;20060;-76
2022/03/21 06:14:52;;;;;;;18.10;11.05;;;;;;;-146.84;100.00;65060.63;5003032;28;20032;-77
2022/03/21 06:17:18;;;;;;;22.42;10.75;;;;;;;-146.84;100.00;65060.63;5016635;28;20030;-77
2022/03/21 06:19:43;;;;;;;22.88;11.02;;;;;;;-146.84;100.00;65060.63;5017116;28;20049;-78
2022/03/21 06:22:09;;;;;;;22.27;11.77;;;;;;;-146.84;100.00;65060.63;5005840;28;20080;-76
2022/03/21 06:24:34;;;;;;;21.33;11.40;;;;;;;-146.84;100.00;65060.63;5002825;28;20033;-77
2022/03/21 06:27:00;;;;;;;20.48;11.70;;;;;;;-146.84;100.00;65060.63;5015751;28;20129;-75
2022/03/21 06:29:28;;;;;;;23.17;11.20;;;;;;;-146.84;100.00;65060.63;5004345;28;20041;-78
2022/03/21 06:31:53;;;;;;;20.20;11.98;;;;;;;-146.84;100.00;65060.63;4999358;28;20029;-77
2022/03/21 06:34:19;;;;;;;22.25;10.95;;;;;;;-146.84;100.00;65060.63;4991269;28;20029;-77
2022/03/21 06:36:44;;;;;;;20.25;11.70;;;;;;;-146.84;100.00;65060.63;5013288;28;20038;-77
2022/03/21 06:39:10;;;;;;;20.73;10.23;;;;;;;-146.84;100.00;65060.63;4979918;28;20034;-78
2022/03/21 06:41:36;;;;;;;21.33;11.35;;;;;;;-146.84;100.00;65060.63;4981332;28;20077;-77
2022/03/21 06:44:02;;;;;;;22.02;10.80;;;;;;;-146.84;100.00;65060.63;5011898;28;20393;-75
2022/03/21 06:46:28;;;;;;;20.40;11.63;;;;;;;-146.84;100.00;65060.63;5005171;28;20038;-76
2022/03/21 06:48:54;;;;;;;18.77;11.82;;;;;;;-146.84;100.00;65060.63;4996153;28;20557;-75
2022/03/21 06:51:19;;;;;;;21.73;10.90;;;;;;;-146.84;100.00;65060.63;4985819;28;20068;-77
2022/03/21 06:53:45;;;;;;;17.40;10.75;;;;;;;-146.84;100.00;65060.63;5007698;28;20492;-78
2022/03/21 06:56:10;;;;;;;19.40;11.45;;;;;;;-146.84;100.00;65060.63;5010391;28;20538;-77
2022/03/21 06:58:36;;;;;;;18.85;11.18;;;;;;;-146.84;100.00;65060.63;4977755;28;20061;-77
2022/03/21 07:01:02;;;;;;;22.20;11.40;;;;;;;-146.84;100.00;65060.63;4994588;28;20046;-76
2022/03/21 07:03:28;;;;;;;21.42;11.05;;;;;;;-146.84;100.00;65060.63;5007372;28;20042;-75
2022/03/21 07:05:54;;;;;;;24.33;11.30;;;;;;;-146.84;100.00;65060.63;4994510;28;20660;-77
2022/03/21 07:08:20;;;;;;;20.52;11.20;;;;;;;-146.84;100.00;65060.63;4992789;28;20526;-76
2022/03/21 07:10:46;;;;;;;23.60;11.82;;;;;;;-146.84;100.00;65060.63;5006086;28;20046;-76
2022/03/21 07:13:12;;;;;;;20.85;11.48;;;;;;;-146.84;100.00;65060.63;4976006;28;20117;-77
2022/03/21 07:15:37;;;;;;;24.27;11.60;;;;;;;-146.84;100.00;65060.63;4997615;28;20045;-76
2022/03/21 07:18:04;;;;;;;20.67;11.02;;;;;;;-146.84;100.00;65060.63;4992222;28;20041;-77
2022/03/21 07:20:29;;;;;;;19.67;11.00;;;;;;;-146.84;100.00;65060.63;4990508;28;20045;-79
2022/03/21 07:22:56;;;;;;;20.17;11.43;;;;;;;-146.84;100.00;65060.63;5010813;28;20117;-78
2022/03/21 07:25:23;;;;;;;19.85;11.20;;;;;;;-146.84;100.00;65060.63;4994314;28;20041;-78
2022/03/21 07:27:49;;;;;;;21.13;11.50;;;;;;;-146.84;100.00;65060.63;4977231;28;20038;-75
2022/03/21 07:30:16;;;;;;;20.85;11.85;;;;;;;-146.84;100.00;65060.63;5008745;28;20041;-79
2022/03/21 07:32:42;;;;;;;21.40;11.40;;;;;;;-146.84;100.00;65060.63;5021526;28;20034;-78
2022/03/21 07:35:09;;;;;;;20.25;10.82;;;;;;;-146.84;100.00;65060.63;4994888;28;20034;-79
2022/03/21 07:37:39;;;;;;;22.15;11.98;;;;;;;-146.84;100.00;65060.63;4981312;28;20061;-80
2022/03/21 07:40:06;;;;;;;22.23;11.23;;;;;;;-146.84;100.00;65060.63;5022718;28;20040;-81
2022/03/21 07:42:33;;;;;;;19.25;11.73;;;;;;;-146.84;100.00;65060.63;4995913;28;20034;-77
2022/03/21 07:47:44;;;;;;;21.25;11.98;;;;;;;-146.84;100.00;65060.63;4992862;28;20514;-78
2022/03/21 07:50:09;;;;;;;21.52;12.00;;;;;;;-146.84;100.00;65060.63;5013254;28;20060;-78
2022/03/21 07:52:35;;;;;;;22.60;11.68;;;;;;;-146.84;100.00;65060.63;4992369;28;20034;-77
2022/03/21 07:55:00;;;;;;;19.13;11.48;;;;;;;-146.84;100.00;65060.63;5007399;28;20044;-79
2022/03/21 07:57:29;;;;;;;24.80;12.20;;;;;;;-146.84;100.00;65060.63;4978052;28;20033;-77
2022/03/21 07:59:54;;;;;;;22.92;11.32;;;;;;;-146.84;100.00;65060.63;4994561;28;20083;-79
2022/03/21 08:02:21;;;;;;;18.98;11.50;;;;;;;-146.84;100.00;65060.63;4993274;28;20484;-77
2022/03/21 08:04:50;;;;;;;21.27;11.40;;;;;;;-146.84;100.00;65060.63;5007009;28;20113;-78
2022/03/21 08:07:15;;;;;;;17.38;11.18;;;;;;;-146.84;100.00;65060.63;5009459;28;20052;-79
2022/03/21 08:09:41;;;;;;;21.65;11.35;;;;;;;-146.84;100.00;65060.63;5012784;28;20045;-79
2022/03/21 08:12:08;;;;;;;18.13;11.30;;;;;;;-146.84;100.00;65060.63;5015093;28;20041;-79
2022/03/21 08:14:35;;;;;;;20.08;11.23;;;;;;;-146.84;100.00;65060.63;5012664;28;20041;-77
2022/03/21 08:17:00;;;;;;;22.00;12.02;;;;;;;-146.84;100.00;65060.63;4997923;28;20049;-79
2022/03/21 08:19:27;;;;;;;21.77;12.35;;;;;;;-146.84;100.00;65060.63;5010219;28;20030;-76
2022/03/21 08:21:53;;;;;;;20.98;11.77;;;;;;;-146.84;100.00;65060.63;5018377;28;20506;-79
2022/03/21 08:24:19;;;;;;;21.27;12.02;;;;;;;-146.84;100.00;65060.63;4993375;28;20025;-78
2022/03/21 08:26:45;;;;;;;21.73;11.75;;;;;;;-146.84;100.00;65060.63;4990132;28;20053;-76
2022/03/21 08:29:10;;;;;;;17.75;11.07;;;;;;;-146.84;100.00;65060.63;5007450;28;20091;-77
2022/03/21 08:31:36;;;;;;;18.80;11.30;;;;;;;-146.84;100.00;65060.63;5015978;28;20042;-78
2022/03/21 08:34:03;;;;;;;19.17;11.60;;;;;;;-146.84;100.00;65060.63;4991463;28;20108;-77
2022/03/21 08:36:29;;;;;;;19.38;11.50;;;;;;;-146.84;100.00;65060.63;4998317;28;20069;-76
2022/03/21 08:38:55;;;;;;;17.48;11.23;;;;;;;-146.84;100.00;65060.63;5000872;28;20049;-78
2022/03/21 08:41:21;;;;;;;20.80;11.15;;;;;;;-146.84;100.00;65060.63;5008983;28;20065;-78
2022/03/21 08:43:48;;;;;;;20.27;12.23;;;;;;;-146.84;100.00;65060.63;4975478;28;20038;-79
2022/03/21 08:46:13;;;;;;;17.85;11.20;;;;;;;-146.84;100.00;65060.63;5023660;28;20115;-78
2022/03/21 08:51:23;;;;;;;19.38;12.30;;;;;;;-146.84;100.00;65060.63;5009273;28;20105;-78
2022/03/21 08:53:50;;;;;;;16.90;11.20;;;;;;;-146.84;100.00;65060.63;4977344;28;20101;-77
2022/03/21 08:56:17;;;;;;;22.60;12.25;;;;;;;-146.84;100.00;65060.63;4975766;28;20054;-77
2022/03/21 08:58:43;;;;;;;20.23;11.80;;;;;;;-146.84;100.00;65060.63;4975441;28;20033;-76
2022/03/21 09:01:08;;;;;;;16.85;11.18;;;;;;;-146.84;100.00;65060.63;4975320;28;20037;-77
2022/03/21 09:03:34;;;;;;;20.23;12.05;;;;;;;-146.84;100.00;65060.63;4999513;28;20045;-77
2022/03/21 09:05:59;;;;;;;19.33;11.23;;;;;;;-146.84;100.00;65060.63;4987951;28;20143;-78
2022/03/21 09:08:25;;;;;;;19.88;12.48;;;;;;;-146.84;100.00;65060.63;4995581;28;20448;-75
2022/03/21 09:10:52;;;;;;;20.25;11.50;;;;;;;-146.84;100.00;65060.63;5001915;28;20037;-77
2022/03/21 09:13:18;;;;;;;20.65;11.93;;;;;;;-146.84;100.00;65060.63;5009446;28;20030;-77
2022/03/21 09:15:44;;;;;;;19.65;11.57;;;;;;;-146.84;100.00;65060.63;5000763;28;20034;-77
2022/03/21 09:18:10;;;;;;;21.88;11.68;;;;;;;-146.84;100.00;65060.63;4992301;28;20037;-78
2022/03/21 09:20:36;;;;;;;20.20;11.43;;;;;;;-146.84;100.00;65060.63;4995687;28;20132;-77
2022/03/21 09:23:01;;;;;;;18.05;12.15;;;;;;;-146.84;100.00;65060.63;4995750;28;20096;-77
2022/03/21 09:25:27;;;;;;;22.00;12.13;;;;;;;-146.84;100.00;65060.63;4996144;28;20046;-78
2022/03/21 09:27:53;;;;;;;19.65;11.48;;;;;;;-146.84;100.00;65060.63;4981395;28;20145;-78
2022/03/21 09:30:18;;;;;;;21.13;12.13;;;;;;;-146.84;100.00;65060.63;4995317;28;20034;-76
2022/03/21 09:32:44;;;;;;;20.42;12.50;;;;;;;-146.84;100.00;65060.63;4991031;28;20551;-78
2022/03/21 09:35:10;;;;;;;20.55;12.07;;;;;;;-146.84;100.00;65060.63;5001992;28;20049;-78
2022/03/21 09:37:36;;;;;;;19.08;11.27;;;;;;;-146.84;100.00;65060.63;4996064;28;20404;-77
2022/03/21 09:40:03;;;;;;;17.73;11.23;;;;;;;-146.84;100.00;65060.63;5010939;28;20037;-76
2022/03/21 09:42:28;;;;;;;22.38;11.65;;;;;;;-146.84;100.00;65060.63;4996663;28;20072;-77
2022/03/21 09:44:54;;;;;;;19.50;11.68;;;;;;;-146.84;100.00;65060.63;5028033;28;20065;-78
2022/03/21 09:50:11;;;;;;;23.35;11.52;;;;;;;-146.84;100.00;65060.63;4993303;28;20409;-75
2022/03/21 09:52:38;;;;;;;18.42;11.48;;;;;;;-146.84;100.00;65060.63;5005991;28;20038;-81
2022/03/21 09:55:05;;;;;;;19.17;10.93;;;;;;;-146.84;100.00;65060.63;5003789;28;20038;-77
2022/03/21 09:57:31;;;;;;;19.83;11.35;;;;;;;-146.84;100.00;65060.63;5008991;28;20129;-77
2022/03/21 09:59:57;;;;;;;21.20;11.73;;;;;;;-146.84;100.00;65060.63;5008112;28;20038;-78
2022/03/21 10:02:24;;;;;;;21.23;11.75;;;;;;;-146.84;100.00;65060.63;5010548;28;20047;-76
2022/03/21 10:04:50;;;;;;;18.80;11.65;;;;;;;-146.84;100.00;65060.63;4994943;28;20124;-77
2022/03/21 10:07:26;;;;;;;17.77;11.82;;;;;;;-146.84;100.00;65060.63;5003606;28;20046;-76
2022/03/21 10:10:18;;;;;;;18.50;11.45;;;;;;;-146.84;100.00;65060.63;4990875;28;20038;-76
2022/03/21 10:12:44;;;;;;;22.02;11.90;;;;;;;-146.84;100.00;65060.63;5006247;28;20033;-78
2022/03/21 10:15:10;;;;;;;20.25;11.48;;;;;;;-146.84;100.00;65060.63;5008633;28;20038;-75
2022/03/21 10:17:37;;;;;;;19.42;11.35;;;;;;;-146.84;100.00;65060.63;5010468;28;20054;-77
2022/03/21 10:20:04;;;;;;;17.77;12.00;;;;;;;-146.84;100.00;65060.63;4994209;28;20044;-77
2022/03/21 10:22:33;;;;;;;21.50;12.35;;;;;;;-146.84;100.00;65060.63;5010579;28;20385;-78
2022/03/21 10:25:08;;;;;;;19.75;12.10;;;;;;;-146.84;100.00;65060.63;4978272;28;20625;-77
2022/03/21 10:27:34;;;;;;;19.63;11.57;;;;;;;-146.84;100.00;65060.63;4990241;28;20093;-77
2022/03/21 10:30:15;;;;;;;18.58;12.27;;;;;;;-146.84;100.00;65060.63;5016784;28;20523;-76
2022/03/21 10:32:44;;;;;;;21.90;12.02;;;;;;;-146.84;100.00;65060.63;4996304;28;20404;-78
2022/03/21 10:35:16;;;;;;;18.90;11.23;;;;;;;-146.84;100.00;65060.63;4993715;28;20041;-78
2022/03/21 10:37:43;;;;;;;;;;;;;;;-146.84;100.00;65060.63;5012784;28;20046;-74
2022/03/21 10:40:19;;;;;;;18.60;12.48;;;;;;;-146.84;100.00;65060.63;5010403;28;20006;-75
2022/03/21 10:42:56;;;;;;;17.00;11.45;;;;;;;-146.84;100.00;65060.63;4999201;28;20045;-77
2022/03/21 10:45:23;;;;;;;18.65;11.18;;;;;;;-146.84;100.00;65060.63;4992964;28;20060;-76
2022/03/21 10:47:50;;;;;;;20.25;11.23;;;;;;;-146.84;100.00;65060.63;5006870;28;20622;-77
2022/03/21 10:50:26;;;;;;;17.55;11.52;;;;;;;-146.84;100.00;65060.63;5006121;28;20045;-75
2022/03/21 10:53:13;;;;;;;16.67;11.75;;;;;;;-146.84;100.00;65060.63;5004499;28;20504;-78
2022/03/21 10:55:44;;;;;;;20.55;11.93;;;;;;;-146.84;100.00;65060.63;5026541;28;20037;-78
2022/03/21 10:58:11;;;;;;;24.98;11.73;;;;;;;-146.84;100.00;65060.63;4994717;28;20034;-78
2022/03/21 11:00:38;;;;;;;20.42;12.90;;;;;;;-146.84;100.00;65060.63;5010235;28;20038;-78
2022/03/21 11:03:09;;;;;;;16.02;11.73;;;;;;;-146.84;100.00;65060.63;5008108;28;20039;-78
2022/03/21 11:05:48;;;;;;;17.70;12.48;;;;;;;-146.84;100.00;65060.63;4988984;28;20082;-77
2022/03/21 11:08:16;;;;;;;19.63;11.88;;;;;;;-146.84;100.00;65060.63;5008682;28;20034;-77
2022/03/21 11:10:42;;;;;;;20.77;11.70;;;;;;;-146.84;100.00;65060.63;5019102;28;20117;-78
2022/03/21 11:13:08;;;;;;;18.65;11.55;;;;;;;-146.84;100.00;65060.63;4969871;28;20042;-78
2022/03/21 11:15:36;;;;;;;20.83;12.70;;;;;;;-146.84;100.00;65060.63;4981155;28;20034;-79
2022/03/21 11:18:04;;;;;;;20.92;12.25;;;;;;;-146.84;100.00;65060.63;4977674;28;20121;-78
2022/03/21 11:20:29;;;;;;;18.65;11.73;;;;;;;-146.84;100.00;65060.63;5003374;28;20038;-76
2022/03/21 11:22:56;;;;;;;21.73;12.00;;;;;;;-146.84;100.00;65060.63;5010748;28;20052;-76